sensor_id;sensor_type;location;lat;lon;timestamp;P1;durP1;ratioP1;P2;durP2;ratioP2
10659;SDS011;5378;53.206;13.316;2022-09-09T00:00:53;12.03;;;7.63;;
10659;SDS011;5378;53.206;13.316;2022-09-09T00:03:47;11.27;;;8.10;;
10659;SDS011;5378;53.206;13.316;2022-09-09T00:06:43;15.77;;;8.60;;
10659;SDS011;5378;53.206;13.316;2022-09-09T00:09:39;12.07;;;8.80;;
10659;SDS011;5378;53.206;13.316;2022-09-09T00:12:33;12.90;;;7.13;;
10659;SDS011;5378;53.206;13.316;2022-09-09T00:15:25;16.47;;;9.13;;
10659;SDS011;5378;53.206;13.316;2022-09-09T00:18:21;18.00;;;10.53;;
10659;SDS011;5378;53.206;13.316;2022-09-09T00:21:15;13.30;;;8.73;;
10659;SDS011;5378;53.206;13.316;2022-09-09T00:24:08;15.87;;;9.03;;
10659;SDS011;5378;53.206;13.316;2022-09-09T00:27:01;15.30;;;8.40;;
10659;SDS011;5378;53.206;13.316;2022-09-09T00:29:53;16.40;;;8.07;;
10659;SDS011;5378;53.206;13.316;2022-09-09T00:32:44;13.70;;;8.20;;
10659;SDS011;5378;53.206;13.316;2022-09-09T00:35:32;14.77;;;8.23;;
10659;SDS011;5378;53.206;13.316;2022-09-09T00:38:25;11.90;;;7.80;;
10659;SDS011;5378;53.206;13.316;2022-09-09T00:41:17;13.27;;;8.87;;
10659;SDS011;5378;53.206;13.316;2022-09-09T00:44:12;13.27;;;8.17;;
10659;SDS011;5378;53.206;13.316;2022-09-09T00:47:09;13.63;;;8.90;;
10659;SDS011;5378;53.206;13.316;2022-09-09T00:50:12;17.10;;;9.37;;
10659;SDS011;5378;53.206;13.316;2022-09-09T00:53:20;15.93;;;9.50;;
10659;SDS011;5378;53.206;13.316;2022-09-09T00:56:17;19.03;;;9.60;;
10659;SDS011;5378;53.206;13.316;2022-09-09T00:59:10;14.97;;;9.40;;
10659;SDS011;5378;53.206;13.316;2022-09-09T01:02:07;13.60;;;8.47;;
10659;SDS011;5378;53.206;13.316;2022-09-09T01:05:05;12.33;;;8.53;;
10659;SDS011;5378;53.206;13.316;2022-09-09T01:07:57;14.37;;;8.87;;
10659;SDS011;5378;53.206;13.316;2022-09-09T01:10:49;16.70;;;9.77;;
10659;SDS011;5378;53.206;13.316;2022-09-09T01:13:44;15.70;;;10.20;;
10659;SDS011;5378;53.206;13.316;2022-09-09T01:16:33;18.20;;;10.00;;
10659;SDS011;5378;53.206;13.316;2022-09-09T01:19:24;17.77;;;10.33;;
10659;SDS011;5378;53.206;13.316;2022-09-09T01:22:26;18.93;;;9.97;;
10659;SDS011;5378;53.206;13.316;2022-09-09T01:25:30;18.70;;;11.53;;
10659;SDS011;5378;53.206;13.316;2022-09-09T01:28:43;17.60;;;10.07;;
10659;SDS011;5378;53.206;13.316;2022-09-09T01:31:36;17.17;;;10.83;;
10659;SDS011;5378;53.206;13.316;2022-09-09T01:34:28;19.63;;;11.60;;
10659;SDS011;5378;53.206;13.316;2022-09-09T01:37:20;16.47;;;10.10;;
10659;SDS011;5378;53.206;13.316;2022-09-09T01:40:07;18.70;;;10.53;;
10659;SDS011;5378;53.206;13.316;2022-09-09T01:42:56;20.87;;;10.87;;
10659;SDS011;5378;53.206;13.316;2022-09-09T01:45:45;17.80;;;10.03;;
10659;SDS011;5378;53.206;13.316;2022-09-09T01:48:36;21.47;;;12.13;;
10659;SDS011;5378;53.206;13.316;2022-09-09T01:51:26;19.73;;;11.20;;
10659;SDS011;5378;53.206;13.316;2022-09-09T01:54:16;23.60;;;12.37;;
10659;SDS011;5378;53.206;13.316;2022-09-09T01:57:06;17.73;;;10.57;;
10659;SDS011;5378;53.206;13.316;2022-09-09T02:00:04;27.47;;;12.30;;
10659;SDS011;5378;53.206;13.316;2022-09-09T02:03:04;22.33;;;11.63;;
10659;SDS011;5378;53.206;13.316;2022-09-09T02:06:07;20.37;;;11.23;;
10659;SDS011;5378;53.206;13.316;2022-09-09T02:09:02;21.87;;;11.33;;
10659;SDS011;5378;53.206;13.316;2022-09-09T02:11:53;19.80;;;11.80;;
10659;SDS011;5378;53.206;13.316;2022-09-09T02:14:55;21.50;;;11.70;;
10659;SDS011;5378;53.206;13.316;2022-09-09T02:17:53;24.47;;;12.17;;
10659;SDS011;5378;53.206;13.316;2022-09-09T02:20:46;24.00;;;12.30;;
10659;SDS011;5378;53.206;13.316;2022-09-09T02:23:34;22.00;;;12.07;;
10659;SDS011;5378;53.206;13.316;2022-09-09T02:26:26;22.90;;;11.10;;
10659;SDS011;5378;53.206;13.316;2022-09-09T02:29:21;24.07;;;11.60;;
10659;SDS011;5378;53.206;13.316;2022-09-09T02:32:14;20.10;;;11.57;;
10659;SDS011;5378;53.206;13.316;2022-09-09T02:35:05;20.33;;;10.80;;
10659;SDS011;5378;53.206;13.316;2022-09-09T02:37:58;22.77;;;11.83;;
10659;SDS011;5378;53.206;13.316;2022-09-09T02:40:50;27.20;;;12.20;;
10659;SDS011;5378;53.206;13.316;2022-09-09T02:43:37;23.40;;;10.80;;
10659;SDS011;5378;53.206;13.316;2022-09-09T02:46:42;26.00;;;13.37;;
10659;SDS011;5378;53.206;13.316;2022-09-09T02:49:43;25.87;;;12.50;;
10659;SDS011;5378;53.206;13.316;2022-09-09T02:52:45;28.40;;;12.30;;
10659;SDS011;5378;53.206;13.316;2022-09-09T02:55:46;25.00;;;12.00;;
10659;SDS011;5378;53.206;13.316;2022-09-09T02:58:37;28.63;;;12.57;;
10659;SDS011;5378;53.206;13.316;2022-09-09T03:01:25;31.47;;;13.87;;
10659;SDS011;5378;53.206;13.316;2022-09-09T03:04:13;25.40;;;13.40;;
10659;SDS011;5378;53.206;13.316;2022-09-09T03:07:00;28.03;;;13.47;;
10659;SDS011;5378;53.206;13.316;2022-09-09T03:09:49;34.03;;;14.50;;
10659;SDS011;5378;53.206;13.316;2022-09-09T03:12:37;30.97;;;14.10;;
10659;SDS011;5378;53.206;13.316;2022-09-09T03:15:24;31.80;;;13.63;;
10659;SDS011;5378;53.206;13.316;2022-09-09T03:18:14;31.90;;;13.87;;
10659;SDS011;5378;53.206;13.316;2022-09-09T03:21:06;31.37;;;13.57;;
10659;SDS011;5378;53.206;13.316;2022-09-09T03:23:55;30.57;;;15.60;;
10659;SDS011;5378;53.206;13.316;2022-09-09T03:26:42;27.13;;;13.77;;
10659;SDS011;5378;53.206;13.316;2022-09-09T03:29:34;41.53;;;17.50;;
10659;SDS011;5378;53.206;13.316;2022-09-09T03:32:25;37.20;;;15.10;;
10659;SDS011;5378;53.206;13.316;2022-09-09T03:35:15;36.30;;;15.93;;
10659;SDS011;5378;53.206;13.316;2022-09-09T03:38:02;43.60;;;16.07;;
10659;SDS011;5378;53.206;13.316;2022-09-09T03:40:52;34.33;;;15.47;;
10659;SDS011;5378;53.206;13.316;2022-09-09T03:43:41;40.70;;;16.40;;
10659;SDS011;5378;53.206;13.316;2022-09-09T03:46:29;38.40;;;15.60;;
10659;SDS011;5378;53.206;13.316;2022-09-09T03:49:18;37.23;;;16.10;;
10659;SDS011;5378;53.206;13.316;2022-09-09T03:52:06;38.33;;;15.40;;
10659;SDS011;5378;53.206;13.316;2022-09-09T03:54:54;37.37;;;15.10;;
10659;SDS011;5378;53.206;13.316;2022-09-09T03:57:42;39.90;;;15.83;;
10659;SDS011;5378;53.206;13.316;2022-09-09T04:00:30;39.53;;;17.77;;
10659;SDS011;5378;53.206;13.316;2022-09-09T04:03:19;33.83;;;16.13;;
10659;SDS011;5378;53.206;13.316;2022-09-09T04:06:08;27.07;;;12.33;;
10659;SDS011;5378;53.206;13.316;2022-09-09T04:08:59;31.00;;;14.63;;
10659;SDS011;5378;53.206;13.316;2022-09-09T04:11:49;31.00;;;14.37;;
10659;SDS011;5378;53.206;13.316;2022-09-09T04:14:37;34.97;;;14.00;;
10659;SDS011;5378;53.206;13.316;2022-09-09T04:17:25;36.87;;;14.20;;
10659;SDS011;5378;53.206;13.316;2022-09-09T04:20:13;36.50;;;13.77;;
10659;SDS011;5378;53.206;13.316;2022-09-09T04:23:00;32.80;;;13.40;;
10659;SDS011;5378;53.206;13.316;2022-09-09T04:25:48;32.80;;;15.17;;
10659;SDS011;5378;53.206;13.316;2022-09-09T04:28:37;44.63;;;15.97;;
10659;SDS011;5378;53.206;13.316;2022-09-09T04:31:30;38.17;;;15.60;;
10659;SDS011;5378;53.206;13.316;2022-09-09T04:34:17;34.60;;;14.70;;
10659;SDS011;5378;53.206;13.316;2022-09-09T04:37:06;37.40;;;13.37;;
10659;SDS011;5378;53.206;13.316;2022-09-09T04:39:52;37.23;;;15.20;;
10659;SDS011;5378;53.206;13.316;2022-09-09T04:42:39;30.53;;;12.37;;
10659;SDS011;5378;53.206;13.316;2022-09-09T04:45:31;25.90;;;12.90;;
10659;SDS011;5378;53.206;13.316;2022-09-09T04:48:19;35.03;;;14.00;;
10659;SDS011;5378;53.206;13.316;2022-09-09T04:51:08;28.20;;;13.13;;
10659;SDS011;5378;53.206;13.316;2022-09-09T04:54:00;30.30;;;12.67;;
10659;SDS011;5378;53.206;13.316;2022-09-09T04:56:47;33.87;;;13.47;;
10659;SDS011;5378;53.206;13.316;2022-09-09T04:59:37;35.83;;;13.73;;
10659;SDS011;5378;53.206;13.316;2022-09-09T05:02:25;28.30;;;11.93;;
10659;SDS011;5378;53.206;13.316;2022-09-09T05:05:15;29.07;;;12.00;;
10659;SDS011;5378;53.206;13.316;2022-09-09T05:08:06;26.70;;;11.27;;
10659;SDS011;5378;53.206;13.316;2022-09-09T05:10:57;24.93;;;11.27;;
10659;SDS011;5378;53.206;13.316;2022-09-09T05:13:45;28.50;;;12.30;;
10659;SDS011;5378;53.206;13.316;2022-09-09T05:16:33;21.60;;;10.47;;
10659;SDS011;5378;53.206;13.316;2022-09-09T05:19:19;26.53;;;12.40;;
10659;SDS011;5378;53.206;13.316;2022-09-09T05:22:07;26.37;;;13.47;;
10659;SDS011;5378;53.206;13.316;2022-09-09T05:25:01;23.53;;;11.00;;
10659;SDS011;5378;53.206;13.316;2022-09-09T05:27:49;27.40;;;12.43;;
10659;SDS011;5378;53.206;13.316;2022-09-09T05:30:37;29.13;;;13.60;;
10659;SDS011;5378;53.206;13.316;2022-09-09T05:33:24;25.83;;;12.33;;
10659;SDS011;5378;53.206;13.316;2022-09-09T05:36:12;28.20;;;12.10;;
10659;SDS011;5378;53.206;13.316;2022-09-09T05:39:00;27.10;;;11.17;;
10659;SDS011;5378;53.206;13.316;2022-09-09T05:41:50;28.57;;;11.10;;
10659;SDS011;5378;53.206;13.316;2022-09-09T05:44:38;25.13;;;11.30;;
10659;SDS011;5378;53.206;13.316;2022-09-09T05:47:28;22.80;;;10.20;;
10659;SDS011;5378;53.206;13.316;2022-09-09T05:50:15;23.53;;;11.07;;
10659;SDS011;5378;53.206;13.316;2022-09-09T05:53:03;19.83;;;9.60;;
10659;SDS011;5378;53.206;13.316;2022-09-09T05:55:50;19.57;;;9.63;;
10659;SDS011;5378;53.206;13.316;2022-09-09T05:58:38;23.40;;;11.03;;
10659;SDS011;5378;53.206;13.316;2022-09-09T06:01:30;18.90;;;10.37;;
10659;SDS011;5378;53.206;13.316;2022-09-09T06:04:19;18.10;;;9.20;;
10659;SDS011;5378;53.206;13.316;2022-09-09T06:07:10;15.10;;;8.10;;
10659;SDS011;5378;53.206;13.316;2022-09-09T06:09:57;14.77;;;7.83;;
10659;SDS011;5378;53.206;13.316;2022-09-09T06:12:44;18.43;;;8.77;;
10659;SDS011;5378;53.206;13.316;2022-09-09T06:15:31;13.17;;;7.80;;
10659;SDS011;5378;53.206;13.316;2022-09-09T06:18:22;16.17;;;8.57;;
10659;SDS011;5378;53.206;13.316;2022-09-09T06:21:11;15.33;;;8.80;;
10659;SDS011;5378;53.206;13.316;2022-09-09T06:24:03;12.87;;;6.53;;
10659;SDS011;5378;53.206;13.316;2022-09-09T06:26:50;11.60;;;7.53;;
10659;SDS011;5378;53.206;13.316;2022-09-09T06:29:41;12.63;;;7.23;;
10659;SDS011;5378;53.206;13.316;2022-09-09T06:32:28;11.33;;;7.00;;
10659;SDS011;5378;53.206;13.316;2022-09-09T06:35:16;11.97;;;7.30;;
10659;SDS011;5378;53.206;13.316;2022-09-09T06:38:03;9.93;;;6.50;;
10659;SDS011;5378;53.206;13.316;2022-09-09T06:40:51;11.63;;;7.10;;
10659;SDS011;5378;53.206;13.316;2022-09-09T06:43:39;10.37;;;6.07;;
10659;SDS011;5378;53.206;13.316;2022-09-09T06:46:29;8.23;;;5.30;;
10659;SDS011;5378;53.206;13.316;2022-09-09T06:49:19;11.20;;;5.90;;
10659;SDS011;5378;53.206;13.316;2022-09-09T06:52:07;10.60;;;6.77;;
10659;SDS011;5378;53.206;13.316;2022-09-09T06:54:55;11.20;;;6.73;;
10659;SDS011;5378;53.206;13.316;2022-09-09T06:57:44;9.90;;;6.77;;
10659;SDS011;5378;53.206;13.316;2022-09-09T07:00:36;11.90;;;6.83;;
10659;SDS011;5378;53.206;13.316;2022-09-09T07:03:24;9.80;;;6.27;;
10659;SDS011;5378;53.206;13.316;2022-09-09T07:06:12;8.80;;;6.70;;
10659;SDS011;5378;53.206;13.316;2022-09-09T07:09:04;9.53;;;5.43;;
10659;SDS011;5378;53.206;13.316;2022-09-09T07:11:54;9.00;;;5.63;;
10659;SDS011;5378;53.206;13.316;2022-09-09T07:14:43;10.10;;;5.87;;
10659;SDS011;5378;53.206;13.316;2022-09-09T07:17:30;9.40;;;6.03;;
10659;SDS011;5378;53.206;13.316;2022-09-09T07:20:18;10.50;;;6.20;;
10659;SDS011;5378;53.206;13.316;2022-09-09T07:23:06;7.90;;;5.73;;
10659;SDS011;5378;53.206;13.316;2022-09-09T07:25:54;8.60;;;5.07;;
10659;SDS011;5378;53.206;13.316;2022-09-09T07:28:41;10.33;;;5.70;;
10659;SDS011;5378;53.206;13.316;2022-09-09T07:31:31;7.30;;;4.83;;
10659;SDS011;5378;53.206;13.316;2022-09-09T07:34:20;5.67;;;4.40;;
10659;SDS011;5378;53.206;13.316;2022-09-09T07:37:07;15.30;;;5.10;;
10659;SDS011;5378;53.206;13.316;2022-09-09T07:39:59;6.67;;;4.50;;
10659;SDS011;5378;53.206;13.316;2022-09-09T07:42:49;6.83;;;4.80;;
10659;SDS011;5378;53.206;13.316;2022-09-09T07:45:37;8.50;;;5.10;;
10659;SDS011;5378;53.206;13.316;2022-09-09T07:48:25;7.80;;;4.80;;
10659;SDS011;5378;53.206;13.316;2022-09-09T07:51:14;6.40;;;4.43;;
10659;SDS011;5378;53.206;13.316;2022-09-09T07:54:04;5.80;;;4.20;;
10659;SDS011;5378;53.206;13.316;2022-09-09T07:56:56;4.50;;;3.77;;
10659;SDS011;5378;53.206;13.316;2022-09-09T07:59:47;4.67;;;3.50;;
10659;SDS011;5378;53.206;13.316;2022-09-09T08:02:36;5.73;;;3.60;;
10659;SDS011;5378;53.206;13.316;2022-09-09T08:05:23;3.97;;;3.33;;
10659;SDS011;5378;53.206;13.316;2022-09-09T08:08:11;3.20;;;2.80;;
10659;SDS011;5378;53.206;13.316;2022-09-09T08:11:02;5.97;;;3.60;;
10659;SDS011;5378;53.206;13.316;2022-09-09T08:13:50;3.00;;;2.60;;
10659;SDS011;5378;53.206;13.316;2022-09-09T08:16:41;2.90;;;2.60;;
10659;SDS011;5378;53.206;13.316;2022-09-09T08:19:32;3.60;;;2.93;;
10659;SDS011;5378;53.206;13.316;2022-09-09T08:22:23;3.03;;;2.30;;
10659;SDS011;5378;53.206;13.316;2022-09-09T08:25:11;2.53;;;2.27;;
10659;SDS011;5378;53.206;13.316;2022-09-09T08:27:59;3.37;;;2.20;;
10659;SDS011;5378;53.206;13.316;2022-09-09T08:30:47;2.40;;;2.20;;
10659;SDS011;5378;53.206;13.316;2022-09-09T08:33:36;3.20;;;2.30;;
10659;SDS011;5378;53.206;13.316;2022-09-09T08:36:25;3.30;;;2.70;;
10659;SDS011;5378;53.206;13.316;2022-09-09T08:39:15;4.03;;;2.60;;
10659;SDS011;5378;53.206;13.316;2022-09-09T08:45:29;3.10;;;2.07;;
10659;SDS011;5378;53.206;13.316;2022-09-09T08:48:28;3.87;;;2.60;;
10659;SDS011;5378;53.206;13.316;2022-09-09T08:51:29;2.67;;;2.10;;
10659;SDS011;5378;53.206;13.316;2022-09-09T08:54:18;2.70;;;1.83;;
10659;SDS011;5378;53.206;13.316;2022-09-09T08:57:16;2.77;;;2.17;;
10659;SDS011;5378;53.206;13.316;2022-09-09T09:00:09;3.10;;;2.10;;
10659;SDS011;5378;53.206;13.316;2022-09-09T09:02:59;2.83;;;1.80;;
10659;SDS011;5378;53.206;13.316;2022-09-09T09:05:59;2.07;;;1.80;;
10659;SDS011;5378;53.206;13.316;2022-09-09T09:08:54;3.77;;;2.27;;
10659;SDS011;5378;53.206;13.316;2022-09-09T09:11:50;1.90;;;1.40;;
10659;SDS011;5378;53.206;13.316;2022-09-09T09:14:41;1.63;;;1.23;;
10659;SDS011;5378;53.206;13.316;2022-09-09T09:17:31;1.60;;;1.50;;
10659;SDS011;5378;53.206;13.316;2022-09-09T09:20:26;4.93;;;2.23;;
10659;SDS011;5378;53.206;13.316;2022-09-09T09:23:23;1.43;;;1.33;;
10659;SDS011;5378;53.206;13.316;2022-09-09T09:26:15;3.43;;;2.33;;
10659;SDS011;5378;53.206;13.316;2022-09-09T09:29:07;3.83;;;1.60;;
10659;SDS011;5378;53.206;13.316;2022-09-09T09:32:00;1.67;;;1.30;;
10659;SDS011;5378;53.206;13.316;2022-09-09T09:34:50;1.10;;;0.90;;
10659;SDS011;5378;53.206;13.316;2022-09-09T09:37:41;3.60;;;1.53;;
10659;SDS011;5378;53.206;13.316;2022-09-09T09:40:53;12.03;;;1.47;;
10659;SDS011;5378;53.206;13.316;2022-09-09T09:43:52;3.63;;;1.20;;
10659;SDS011;5378;53.206;13.316;2022-09-09T09:46:41;2.20;;;1.10;;
10659;SDS011;5378;53.206;13.316;2022-09-09T09:49:31;2.40;;;1.20;;
10659;SDS011;5378;53.206;13.316;2022-09-09T09:52:21;2.80;;;1.53;;
10659;SDS011;5378;53.206;13.316;2022-09-09T09:55:11;2.93;;;1.33;;
10659;SDS011;5378;53.206;13.316;2022-09-09T09:58:05;4.63;;;1.70;;
10659;SDS011;5378;53.206;13.316;2022-09-09T10:00:57;1.80;;;1.60;;
10659;SDS011;5378;53.206;13.316;2022-09-09T10:03:49;1.67;;;1.47;;
10659;SDS011;5378;53.206;13.316;2022-09-09T10:06:38;2.37;;;1.70;;
10659;SDS011;5378;53.206;13.316;2022-09-09T10:09:27;3.87;;;1.70;;
10659;SDS011;5378;53.206;13.316;2022-09-09T10:12:19;3.93;;;1.50;;
10659;SDS011;5378;53.206;13.316;2022-09-09T10:15:30;14.23;;;1.70;;
10659;SDS011;5378;53.206;13.316;2022-09-09T10:18:34;2.60;;;1.37;;
10659;SDS011;5378;53.206;13.316;2022-09-09T10:21:36;3.43;;;1.40;;
10659;SDS011;5378;53.206;13.316;2022-09-09T10:24:44;2.40;;;1.30;;
10659;SDS011;5378;53.206;13.316;2022-09-09T10:27:57;3.00;;;1.20;;
10659;SDS011;5378;53.206;13.316;2022-09-09T10:31:01;2.30;;;1.30;;
10659;SDS011;5378;53.206;13.316;2022-09-09T10:33:57;2.30;;;1.20;;
10659;SDS011;5378;53.206;13.316;2022-09-09T10:36:52;2.20;;;1.00;;
10659;SDS011;5378;53.206;13.316;2022-09-09T10:39:39;2.00;;;1.33;;
10659;SDS011;5378;53.206;13.316;2022-09-09T10:42:28;1.20;;;0.90;;
10659;SDS011;5378;53.206;13.316;2022-09-09T10:45:18;1.20;;;0.90;;
10659;SDS011;5378;53.206;13.316;2022-09-09T10:48:14;1.37;;;1.10;;
10659;SDS011;5378;53.206;13.316;2022-09-09T10:51:16;2.93;;;1.20;;
10659;SDS011;5378;53.206;13.316;2022-09-09T10:54:16;1.53;;;0.77;;
10659;SDS011;5378;53.206;13.316;2022-09-09T10:57:18;1.53;;;1.00;;
10659;SDS011;5378;53.206;13.316;2022-09-09T11:00:15;1.00;;;0.73;;
10659;SDS011;5378;53.206;13.316;2022-09-09T11:03:05;1.20;;;0.80;;
10659;SDS011;5378;53.206;13.316;2022-09-09T11:05:56;1.37;;;0.90;;
10659;SDS011;5378;53.206;13.316;2022-09-09T11:08:46;1.37;;;0.80;;
10659;SDS011;5378;53.206;13.316;2022-09-09T11:11:37;1.00;;;0.63;;
10659;SDS011;5378;53.206;13.316;2022-09-09T11:14:30;2.40;;;0.83;;
10659;SDS011;5378;53.206;13.316;2022-09-09T11:17:23;4.63;;;1.07;;
10659;SDS011;5378;53.206;13.316;2022-09-09T11:20:16;2.50;;;0.90;;
10659;SDS011;5378;53.206;13.316;2022-09-09T11:23:05;4.33;;;1.10;;
10659;SDS011;5378;53.206;13.316;2022-09-09T11:25:58;1.40;;;0.80;;
10659;SDS011;5378;53.206;13.316;2022-09-09T11:28:53;0.83;;;0.63;;
10659;SDS011;5378;53.206;13.316;2022-09-09T11:31:53;1.87;;;1.00;;
10659;SDS011;5378;53.206;13.316;2022-09-09T11:34:51;3.70;;;1.57;;
10659;SDS011;5378;53.206;13.316;2022-09-09T11:37:59;2.50;;;0.90;;
10659;SDS011;5378;53.206;13.316;2022-09-09T11:41:02;2.90;;;1.00;;
10659;SDS011;5378;53.206;13.316;2022-09-09T11:43:52;3.17;;;1.33;;
10659;SDS011;5378;53.206;13.316;2022-09-09T11:46:40;4.77;;;1.40;;
10659;SDS011;5378;53.206;13.316;2022-09-09T11:49:28;6.07;;;1.10;;
10659;SDS011;5378;53.206;13.316;2022-09-09T11:52:21;12.83;;;1.83;;
10659;SDS011;5378;53.206;13.316;2022-09-09T11:55:24;3.37;;;1.10;;
10659;SDS011;5378;53.206;13.316;2022-09-09T11:58:16;4.20;;;1.00;;
10659;SDS011;5378;53.206;13.316;2022-09-09T12:01:16;1.60;;;1.03;;
10659;SDS011;5378;53.206;13.316;2022-09-09T12:04:26;2.20;;;1.10;;
10659;SDS011;5378;53.206;13.316;2022-09-09T12:07:23;2.40;;;0.93;;
10659;SDS011;5378;53.206;13.316;2022-09-09T12:10:21;5.87;;;1.10;;
10659;SDS011;5378;53.206;13.316;2022-09-09T12:13:15;2.60;;;1.03;;
10659;SDS011;5378;53.206;13.316;2022-09-09T12:16:03;5.17;;;1.10;;
10659;SDS011;5378;53.206;13.316;2022-09-09T12:18:51;4.53;;;1.00;;
10659;SDS011;5378;53.206;13.316;2022-09-09T12:21:51;3.17;;;1.00;;
10659;SDS011;5378;53.206;13.316;2022-09-09T12:24:46;1.53;;;0.87;;
10659;SDS011;5378;53.206;13.316;2022-09-09T12:27:42;2.80;;;1.23;;
10659;SDS011;5378;53.206;13.316;2022-09-09T12:30:39;3.03;;;0.80;;
10659;SDS011;5378;53.206;13.316;2022-09-09T12:33:35;1.47;;;1.00;;
10659;SDS011;5378;53.206;13.316;2022-09-09T12:36:27;2.00;;;1.10;;
10659;SDS011;5378;53.206;13.316;2022-09-09T12:39:27;1.33;;;0.87;;
10659;SDS011;5378;53.206;13.316;2022-09-09T12:42:19;2.70;;;1.00;;
10659;SDS011;5378;53.206;13.316;2022-09-09T12:45:16;4.20;;;1.27;;
10659;SDS011;5378;53.206;13.316;2022-09-09T12:48:05;1.47;;;0.83;;
10659;SDS011;5378;53.206;13.316;2022-09-09T12:50:54;1.37;;;0.93;;
10659;SDS011;5378;53.206;13.316;2022-09-09T12:53:42;3.53;;;0.90;;
10659;SDS011;5378;53.206;13.316;2022-09-09T12:56:32;0.90;;;0.70;;
10659;SDS011;5378;53.206;13.316;2022-09-09T12:59:22;1.37;;;0.70;;
10659;SDS011;5378;53.206;13.316;2022-09-09T13:02:18;1.90;;;1.03;;
10659;SDS011;5378;53.206;13.316;2022-09-09T13:05:12;1.00;;;0.60;;
10659;SDS011;5378;53.206;13.316;2022-09-09T13:08:03;1.53;;;0.90;;
10659;SDS011;5378;53.206;13.316;2022-09-09T13:10:53;3.97;;;0.80;;
10659;SDS011;5378;53.206;13.316;2022-09-09T13:13:50;1.13;;;0.57;;
10659;SDS011;5378;53.206;13.316;2022-09-09T13:16:38;4.07;;;0.97;;
10659;SDS011;5378;53.206;13.316;2022-09-09T13:19:29;3.87;;;0.90;;
10659;SDS011;5378;53.206;13.316;2022-09-09T13:22:20;0.80;;;0.60;;
10659;SDS011;5378;53.206;13.316;2022-09-09T13:25:17;1.03;;;0.43;;
10659;SDS011;5378;53.206;13.316;2022-09-09T13:28:18;2.50;;;1.30;;
10659;SDS011;5378;53.206;13.316;2022-09-09T13:31:19;2.30;;;1.00;;
10659;SDS011;5378;53.206;13.316;2022-09-09T13:34:11;2.27;;;0.70;;
10659;SDS011;5378;53.206;13.316;2022-09-09T13:37:01;2.00;;;0.63;;
10659;SDS011;5378;53.206;13.316;2022-09-09T13:39:51;3.43;;;1.03;;
10659;SDS011;5378;53.206;13.316;2022-09-09T13:42:40;2.07;;;1.00;;
10659;SDS011;5378;53.206;13.316;2022-09-09T13:45:28;2.20;;;0.80;;
10659;SDS011;5378;53.206;13.316;2022-09-09T13:48:17;1.63;;;0.80;;
10659;SDS011;5378;53.206;13.316;2022-09-09T13:54:14;1.10;;;0.70;;
10659;SDS011;5378;53.206;13.316;2022-09-09T13:57:04;1.90;;;1.03;;
10659;SDS011;5378;53.206;13.316;2022-09-09T13:59:52;4.30;;;0.77;;
10659;SDS011;5378;53.206;13.316;2022-09-09T14:02:55;2.33;;;0.90;;
10659;SDS011;5378;53.206;13.316;2022-09-09T14:05:43;1.80;;;0.90;;
10659;SDS011;5378;53.206;13.316;2022-09-09T14:08:30;3.20;;;1.00;;
10659;SDS011;5378;53.206;13.316;2022-09-09T14:11:23;4.10;;;0.90;;
10659;SDS011;5378;53.206;13.316;2022-09-09T14:14:10;3.40;;;1.00;;
10659;SDS011;5378;53.206;13.316;2022-09-09T14:16:58;4.20;;;0.90;;
10659;SDS011;5378;53.206;13.316;2022-09-09T14:19:45;2.03;;;0.80;;
10659;SDS011;5378;53.206;13.316;2022-09-09T14:22:32;0.90;;;0.63;;
10659;SDS011;5378;53.206;13.316;2022-09-09T14:25:19;2.50;;;0.63;;
10659;SDS011;5378;53.206;13.316;2022-09-09T14:28:09;0.90;;;0.70;;
10659;SDS011;5378;53.206;13.316;2022-09-09T14:30:59;0.90;;;0.70;;
10659;SDS011;5378;53.206;13.316;2022-09-09T14:33:47;0.90;;;0.73;;
10659;SDS011;5378;53.206;13.316;2022-09-09T14:36:34;3.73;;;0.67;;
10659;SDS011;5378;53.206;13.316;2022-09-09T14:39:21;2.50;;;1.00;;
10659;SDS011;5378;53.206;13.316;2022-09-09T14:42:08;1.83;;;0.60;;
10659;SDS011;5378;53.206;13.316;2022-09-09T14:44:57;1.37;;;0.90;;
10659;SDS011;5378;53.206;13.316;2022-09-09T14:47:45;3.73;;;0.83;;
10659;SDS011;5378;53.206;13.316;2022-09-09T14:50:31;1.87;;;1.17;;
10659;SDS011;5378;53.206;13.316;2022-09-09T14:53:20;0.90;;;0.70;;
10659;SDS011;5378;53.206;13.316;2022-09-09T14:56:08;2.20;;;0.53;;
10659;SDS011;5378;53.206;13.316;2022-09-09T14:58:57;5.43;;;1.10;;
10659;SDS011;5378;53.206;13.316;2022-09-09T15:01:47;1.20;;;0.80;;
10659;SDS011;5378;53.206;13.316;2022-09-09T15:04:34;0.97;;;0.60;;
10659;SDS011;5378;53.206;13.316;2022-09-09T15:07:21;4.50;;;1.10;;
10659;SDS011;5378;53.206;13.316;2022-09-09T15:10:08;1.90;;;1.10;;
10659;SDS011;5378;53.206;13.316;2022-09-09T15:12:56;1.10;;;0.50;;
10659;SDS011;5378;53.206;13.316;2022-09-09T15:15:44;1.13;;;0.90;;
10659;SDS011;5378;53.206;13.316;2022-09-09T15:18:32;2.50;;;0.93;;
10659;SDS011;5378;53.206;13.316;2022-09-09T15:21:22;1.23;;;1.00;;
10659;SDS011;5378;53.206;13.316;2022-09-09T15:24:10;5.00;;;1.40;;
10659;SDS011;5378;53.206;13.316;2022-09-09T15:26:59;2.60;;;0.93;;
10659;SDS011;5378;53.206;13.316;2022-09-09T15:29:46;2.87;;;1.00;;
10659;SDS011;5378;53.206;13.316;2022-09-09T15:32:33;2.00;;;1.10;;
10659;SDS011;5378;53.206;13.316;2022-09-09T15:35:21;2.87;;;0.80;;
10659;SDS011;5378;53.206;13.316;2022-09-09T15:38:08;1.83;;;1.10;;
10659;SDS011;5378;53.206;13.316;2022-09-09T15:40:56;1.10;;;0.90;;
10659;SDS011;5378;53.206;13.316;2022-09-09T15:43:43;3.00;;;1.10;;
10659;SDS011;5378;53.206;13.316;2022-09-09T15:46:32;1.20;;;0.97;;
10659;SDS011;5378;53.206;13.316;2022-09-09T15:49:23;1.20;;;0.90;;
10659;SDS011;5378;53.206;13.316;2022-09-09T15:52:13;5.23;;;1.53;;
10659;SDS011;5378;53.206;13.316;2022-09-09T15:55:00;2.50;;;0.90;;
10659;SDS011;5378;53.206;13.316;2022-09-09T15:57:47;3.10;;;1.23;;
10659;SDS011;5378;53.206;13.316;2022-09-09T16:00:34;5.53;;;1.30;;
10659;SDS011;5378;53.206;13.316;2022-09-09T16:03:22;2.90;;;1.27;;
10659;SDS011;5378;53.206;13.316;2022-09-09T16:06:09;6.77;;;1.03;;
10659;SDS011;5378;53.206;13.316;2022-09-09T16:08:58;1.43;;;0.77;;
10659;SDS011;5378;53.206;13.316;2022-09-09T16:11:47;2.33;;;1.43;;
10659;SDS011;5378;53.206;13.316;2022-09-09T16:14:34;3.90;;;1.30;;
10659;SDS011;5378;53.206;13.316;2022-09-09T16:17:21;1.57;;;1.07;;
10659;SDS011;5378;53.206;13.316;2022-09-09T16:20:09;2.30;;;0.97;;
10659;SDS011;5378;53.206;13.316;2022-09-09T16:22:57;2.53;;;1.20;;
10659;SDS011;5378;53.206;13.316;2022-09-09T16:25:53;2.40;;;1.57;;
10659;SDS011;5378;53.206;13.316;2022-09-09T16:28:41;3.63;;;1.67;;
10659;SDS011;5378;53.206;13.316;2022-09-09T16:31:29;4.10;;;1.70;;
10659;SDS011;5378;53.206;13.316;2022-09-09T16:34:17;2.40;;;1.30;;
10659;SDS011;5378;53.206;13.316;2022-09-09T16:37:04;4.33;;;1.60;;
10659;SDS011;5378;53.206;13.316;2022-09-09T16:39:51;1.73;;;0.90;;
10659;SDS011;5378;53.206;13.316;2022-09-09T16:42:41;5.27;;;1.70;;
10659;SDS011;5378;53.206;13.316;2022-09-09T16:45:28;5.00;;;1.07;;
10659;SDS011;5378;53.206;13.316;2022-09-09T16:48:15;3.70;;;1.77;;
10659;SDS011;5378;53.206;13.316;2022-09-09T16:51:02;2.10;;;1.40;;
10659;SDS011;5378;53.206;13.316;2022-09-09T16:53:51;3.47;;;1.60;;
10659;SDS011;5378;53.206;13.316;2022-09-09T16:56:40;2.40;;;1.50;;
10659;SDS011;5378;53.206;13.316;2022-09-09T16:59:29;5.20;;;1.43;;
10659;SDS011;5378;53.206;13.316;2022-09-09T17:02:17;2.67;;;1.40;;
10659;SDS011;5378;53.206;13.316;2022-09-09T17:05:04;2.20;;;1.97;;
10659;SDS011;5378;53.206;13.316;2022-09-09T17:07:52;2.53;;;1.57;;